Cerro Gordo, Illinois
Current Conditions -  °F | °C
As of 7:03 AM on Tuesday 21 Oct 2014 (Local Time) from KDEC Reporting Station
Light Fog Light Fog  
Wind Chill: 41°   Ceiling: Unl
Heat Index: 44°   Visibility: 4mi
Dew Point: 42°   Wind: 6mph
Humidity: 93%   Direction: 340°NNW
Pressure: 30.09"   Gusts: NA
Location:  39.89°N, 88.73°W
Report Text: KDEC 211203Z 34005KT 4SM MIFG CLR 07/06 A3009 RMK AO2 T00670056
Loading
Personal Weather Stations






























Interactive Weather Map
Tropical Storm Tracking
New forecast layout! Learn more

10-Day Weather Forecast

Advertisements
Track Severe Weather on mobile